Terminal Aerodrome Forecast
Issued by NWS

Home | Current Version | Previous Version | Text Only | Print | Product List | Glossary On
Versions: 1 2 3 4 5 6 7 8 9 10 11 12 13 14 15 16
000
FTUS45 KABQ 311750
TAFROW
TAF
KROW 311750Z 3118/0118 VRB05KT P6SM SCT080 BKN150
     FM312000 14013KT P6SM VCSH SCT090 BKN120
      TEMPO 3120/3123 VRB27G37KT -SHRA BKN080
     FM010200 04010KT P6SM VCSH SCT060 BKN100
     FM011200 02010KT P6SM -RA BKN040 OVC060=

USA.gov is the U.S. government's official web portal to all federal, state and local government web resources and services.